Time;durP1;ratioP1;P1;durP2;ratioP2;P2;SDS_P1;SDS_P2;PMS_P1;PMS_P2;Temp;Humidity;BMP_temperature;BMP_pressure;BME280_temperature;BME280_humidity;BME280_pressure;Samples;Min_cycle;Max_cycle;Signal;HPM_P1;HPM_P2
2023/11/30 00:01:22;;;;;;;27.17;17.23;;;;;;;2.32;100.00;99152.66;5083866;28;20044;-68
2023/11/30 00:03:50;;;;;;;30.75;18.58;;;;;;;2.40;100.00;99158.47;5071026;28;20460;-68
2023/11/30 00:06:18;;;;;;;28.58;18.17;;;;;;;2.31;100.00;99147.47;5073115;28;20060;-68
2023/11/30 00:08:46;;;;;;;28.65;17.92;;;;;;;2.35;100.00;99154.31;5062496;28;20044;-68
2023/11/30 00:11:14;;;;;;;28.70;18.13;;;;;;;2.37;100.00;99155.94;5067213;28;20049;-69
2023/11/30 00:13:42;;;;;;;27.95;17.92;;;;;;;2.32;100.00;99131.75;5064267;28;20054;-68
2023/11/30 00:16:11;;;;;;;31.05;18.27;;;;;;;2.50;100.00;99145.97;5067101;28;20048;-68
2023/11/30 00:18:40;;;;;;;31.38;18.42;;;;;;;2.48;100.00;99145.16;5039768;28;20052;-69
2023/11/30 00:21:08;;;;;;;27.17;17.77;;;;;;;2.50;100.00;99142.50;5048723;28;20056;-67
2023/11/30 00:23:36;;;;;;;26.13;17.40;;;;;;;2.48;100.00;99147.78;5076245;28;20106;-68
2023/11/30 00:26:06;;;;;;;28.88;18.30;;;;;;;2.50;100.00;99150.34;5097803;27;20105;-68
2023/11/30 00:28:37;;;;;;;29.50;18.60;;;;;;;2.53;100.00;99145.84;5074209;28;20052;-68
2023/11/30 00:31:06;;;;;;;28.95;18.55;;;;;;;2.52;100.00;99143.31;5063402;28;20036;-68
2023/11/30 00:33:35;;;;;;;29.85;17.85;;;;;;;2.55;100.00;99141.41;5063418;28;20120;-67
2023/11/30 00:36:08;;;;;;;27.67;17.52;;;;;;;2.60;100.00;99142.13;5046240;28;20060;-67
2023/11/30 00:38:36;;;;;;;28.55;17.67;;;;;;;2.60;100.00;99141.25;5045411;28;20114;-68
2023/11/30 00:41:04;;;;;;;28.58;17.42;;;;;;;2.61;100.00;99148.19;5062637;28;20067;-68
2023/11/30 00:43:32;;;;;;;29.17;18.88;;;;;;;2.62;100.00;99150.75;5061733;28;20085;-68
2023/11/30 00:46:00;;;;;;;28.08;17.75;;;;;;;2.57;100.00;99154.44;5063285;28;20482;-68
2023/11/30 00:48:37;;;;;;;27.15;17.27;;;;;;;2.49;100.00;99139.03;5053855;28;21027;-67
2023/11/30 00:51:08;;;;;;;29.25;19.20;;;;;;;2.54;100.00;99144.94;5054423;28;20322;-68
2023/11/30 00:53:37;;;;;;;30.38;18.67;;;;;;;2.54;100.00;99131.88;5056369;28;20048;-68
2023/11/30 00:56:07;;;;;;;29.05;18.55;;;;;;;2.55;100.00;99125.72;5064095;28;20043;-68
2023/11/30 00:58:34;;;;;;;28.00;17.77;;;;;;;2.52;100.00;99119.78;5058557;28;20048;-68
2023/11/30 01:01:08;;;;;;;32.03;19.98;;;;;;;2.54;100.00;99133.63;5055150;28;20101;-67
2023/11/30 01:03:37;;;;;;;29.70;19.17;;;;;;;2.42;100.00;99127.91;5057429;28;20071;-68
2023/11/30 01:06:08;;;;;;;31.30;19.75;;;;;;;2.36;100.00;99135.94;5061815;28;20042;-69
2023/11/30 01:08:36;;;;;;;32.58;20.13;;;;;;;2.29;100.00;99141.44;5060736;28;20364;-69
2023/11/30 01:11:30;;;;;;;33.45;19.25;;;;;;;2.30;100.00;99145.78;5061181;28;20593;-69
2023/11/30 01:13:59;;;;;;;32.60;20.25;;;;;;;2.33;100.00;99138.69;5081730;28;20493;-68
2023/11/30 01:16:29;;;;;;;35.67;20.30;;;;;;;2.23;100.00;99132.06;5059575;28;20041;-68
2023/11/30 01:18:57;;;;;;;38.88;21.45;;;;;;;2.19;100.00;99138.31;5055331;28;20056;-69
2023/11/30 01:21:27;;;;;;;33.45;19.33;;;;;;;2.13;100.00;99135.88;5065493;28;20393;-69
2023/11/30 01:23:55;;;;;;;34.80;21.50;;;;;;;2.13;100.00;99143.72;5079911;28;20052;-68
2023/11/30 01:26:23;;;;;;;38.78;22.55;;;;;;;2.07;100.00;99143.91;5069805;28;20458;-68
2023/11/30 01:28:51;;;;;;;36.13;20.48;;;;;;;2.08;100.00;99137.78;5073487;28;20076;-68
2023/11/30 01:31:19;;;;;;;33.95;20.42;;;;;;;2.17;100.00;99142.72;5062684;28;20139;-67
2023/11/30 01:33:50;;;;;;;32.50;19.90;;;;;;;2.27;100.00;99128.44;5066037;28;20051;-68
2023/11/30 01:36:19;;;;;;;32.70;20.05;;;;;;;2.31;100.00;99126.59;5084715;28;20045;-68
2023/11/30 01:38:51;;;;;;;32.35;20.73;;;;;;;2.34;100.00;99132.56;5057143;28;20113;-69
2023/11/30 01:41:20;;;;;;;33.30;20.63;;;;;;;2.32;100.00;99128.28;5064470;28;20068;-69
2023/11/30 01:43:49;;;;;;;35.47;21.33;;;;;;;2.36;100.00;99122.88;5081901;28;20044;-68
2023/11/30 01:46:17;;;;;;;31.45;19.90;;;;;;;2.37;100.00;99108.94;5065338;28;20040;-68
2023/11/30 01:48:47;;;;;;;33.88;21.20;;;;;;;2.50;100.00;99124.22;5073844;28;20578;-68
2023/11/30 01:51:16;;;;;;;35.63;21.87;;;;;;;2.49;100.00;99125.97;5064594;28;20498;-68
2023/11/30 01:53:44;;;;;;;38.20;22.30;;;;;;;2.44;100.00;99114.81;5065663;28;20412;-68
2023/11/30 01:56:15;;;;;;;34.80;21.00;;;;;;;2.46;100.00;99103.41;5065897;28;20116;-68
2023/11/30 01:58:43;;;;;;;32.83;20.60;;;;;;;2.49;100.00;99099.84;5059178;28;20036;-69
2023/11/30 02:01:12;;;;;;;34.50;20.58;;;;;;;2.40;100.00;99100.13;5059447;28;20068;-69
2023/11/30 02:03:41;;;;;;;34.15;21.05;;;;;;;2.42;100.00;99107.03;5064145;28;20074;-69
2023/11/30 02:06:09;;;;;;;35.45;21.88;;;;;;;2.37;100.00;99114.16;5060099;28;20084;-68
2023/11/30 02:08:37;;;;;;;35.28;21.45;;;;;;;2.28;100.00;99098.81;5059730;28;20607;-69
2023/11/30 02:11:05;;;;;;;33.40;21.05;;;;;;;2.33;100.00;99096.91;5056551;28;20076;-68
2023/11/30 02:13:35;;;;;;;36.50;22.10;;;;;;;2.40;100.00;99097.53;5075600;28;20041;-68
2023/11/30 02:16:07;;;;;;;34.80;20.92;;;;;;;2.39;100.00;99094.06;5060217;28;20551;-68
2023/11/30 02:18:35;;;;;;;33.95;20.42;;;;;;;2.47;100.00;99088.56;5067848;28;20078;-69
2023/11/30 02:21:04;;;;;;;34.30;21.63;;;;;;;2.53;100.00;99084.88;5070535;28;20479;-68
2023/11/30 02:23:35;;;;;;;33.70;20.40;;;;;;;2.56;100.00;99077.78;5054402;28;20052;-68
2023/11/30 02:26:04;;;;;;;;;;;;;;;2.59;100.00;99082.91;5072455;28;20470;-68
2023/11/30 02:28:33;;;;;;;34.88;20.40;;;;;;;2.60;100.00;99070.69;5065826;28;19958;-69
2023/11/30 02:31:01;;;;;;;34.50;20.00;;;;;;;2.65;100.00;99060.94;5059974;28;20051;-69
2023/11/30 02:33:30;;;;;;;32.13;20.75;;;;;;;2.70;100.00;99065.06;5052096;28;20405;-68
2023/11/30 02:35:59;;;;;;;31.17;20.10;;;;;;;2.74;100.00;99050.13;5059272;28;20044;-68
2023/11/30 02:38:29;;;;;;;34.30;20.30;;;;;;;2.79;100.00;99058.69;5063952;28;20428;-68
2023/11/30 02:40:59;;;;;;;32.13;19.98;;;;;;;2.78;100.00;99046.50;5064830;28;20071;-69
2023/11/30 02:43:29;;;;;;;35.35;21.25;;;;;;;2.78;100.00;99036.91;5073941;28;20059;-67
2023/11/30 02:45:58;;;;;;;29.60;19.30;;;;;;;2.79;100.00;99032.53;5072664;28;20463;-68
2023/11/30 02:48:26;;;;;;;29.90;19.52;;;;;;;2.81;100.00;99033.34;5068188;28;20182;-68
2023/11/30 02:50:53;;;;;;;31.35;19.55;;;;;;;2.80;100.00;99039.47;5063321;28;20041;-67
2023/11/30 02:53:22;;;;;;;36.00;20.73;;;;;;;2.72;100.00;99044.97;5071163;28;20467;-67
2023/11/30 02:55:50;;;;;;;35.53;21.83;;;;;;;2.68;100.00;99032.91;5073700;28;20042;-67
2023/11/30 02:58:20;;;;;;;32.15;21.48;;;;;;;2.76;100.00;99036.13;5088305;28;20052;-69
2023/11/30 03:00:48;;;;;;;35.17;21.90;;;;;;;2.80;100.00;99042.09;5078079;28;20049;-68
2023/11/30 03:03:16;;;;;;;35.58;21.88;;;;;;;2.74;100.00;99047.53;5067702;28;20052;-68
2023/11/30 03:05:44;;;;;;;35.65;22.25;;;;;;;2.54;100.00;99044.78;5084607;28;21170;-69
2023/11/30 03:08:13;;;;;;;37.40;21.17;;;;;;;2.42;100.00;99033.88;5076683;28;20044;-68
2023/11/30 03:10:41;;;;;;;37.70;21.90;;;;;;;2.41;100.00;99018.25;5063447;28;20127;-68
2023/11/30 03:13:08;;;;;;;38.55;22.67;;;;;;;2.47;100.00;99028.47;5064966;28;20048;-69
2023/11/30 03:15:45;;;;;;;38.95;22.98;;;;;;;2.46;100.00;99025.03;5077783;28;20037;-68
2023/11/30 03:18:14;;;;;;;38.60;22.33;;;;;;;2.43;100.00;99032.97;5062892;28;20040;-68
2023/11/30 03:20:43;;;;;;;37.17;22.42;;;;;;;2.39;100.00;99022.66;5067413;28;20057;-67
2023/11/30 03:23:12;;;;;;;35.88;22.25;;;;;;;2.47;100.00;99031.94;5089167;28;20070;-69
2023/11/30 03:25:41;;;;;;;37.95;22.73;;;;;;;2.46;100.00;99025.03;5070412;28;20049;-67
2023/11/30 03:28:12;;;;;;;37.45;21.30;;;;;;;2.52;100.00;99038.78;5073202;28;20067;-68
2023/11/30 03:30:40;;;;;;;32.37;19.93;;;;;;;2.63;100.00;99028.78;5066949;28;20068;-67
2023/11/30 03:33:10;;;;;;;31.45;19.30;;;;;;;2.59;100.00;99019.34;5074067;28;20067;-68
2023/11/30 03:35:41;;;;;;;35.30;21.13;;;;;;;2.57;100.00;99021.16;5088908;28;20058;-68
2023/11/30 03:38:09;;;;;;;34.72;20.60;;;;;;;2.62;100.00;99029.69;5066555;28;20099;-68
2023/11/30 03:40:37;;;;;;;33.97;21.77;;;;;;;2.60;100.00;99023.66;5073877;28;20568;-69
2023/11/30 03:43:05;;;;;;;33.55;20.63;;;;;;;2.67;100.00;99027.78;5048380;28;20048;-67
2023/11/30 03:45:34;;;;;;;31.13;19.67;;;;;;;2.61;100.00;99035.81;5066065;28;20049;-68
2023/11/30 03:48:03;;;;;;;34.20;20.42;;;;;;;2.51;100.00;99021.41;5048969;28;20112;-69
2023/11/30 03:50:33;;;;;;;35.60;20.45;;;;;;;2.47;100.00;99025.88;5075757;28;20044;-69
2023/11/30 03:53:02;;;;;;;31.92;20.73;;;;;;;2.40;100.00;99020.00;5100895;27;20420;-67
2023/11/30 03:55:30;;;;;;;33.92;20.73;;;;;;;2.37;100.00;99024.47;5060892;28;20491;-67
2023/11/30 03:57:58;;;;;;;33.95;20.40;;;;;;;2.33;100.00;99020.28;5048961;28;20045;-68
2023/11/30 04:00:25;;;;;;;38.78;22.15;;;;;;;2.27;100.00;99023.97;5065688;28;20037;-68
2023/11/30 04:02:54;;;;;;;36.15;21.30;;;;;;;2.22;100.00;99025.00;5068514;28;20626;-68
2023/11/30 04:05:22;;;;;;;38.60;22.27;;;;;;;2.18;100.00;99020.84;5063847;28;20428;-68
2023/11/30 04:07:52;;;;;;;38.33;21.63;;;;;;;2.17;100.00;99029.56;5065282;28;20123;-68
2023/11/30 04:10:20;;;;;;;38.42;22.27;;;;;;;2.14;100.00;99027.06;5057235;28;20036;-68
2023/11/30 04:12:48;;;;;;;39.92;21.88;;;;;;;2.13;100.00;99030.56;5075392;28;20048;-69
2023/11/30 04:15:16;;;;;;;38.42;21.80;;;;;;;2.10;100.00;99028.91;5065017;28;20068;-67
2023/11/30 04:17:44;;;;;;;42.28;23.25;;;;;;;2.07;100.00;99023.78;5065357;28;20048;-68
2023/11/30 04:20:12;;;;;;;41.08;22.05;;;;;;;2.07;100.00;99013.34;5053747;28;20048;-68
2023/11/30 04:22:40;;;;;;;42.65;23.08;;;;;;;2.07;100.00;99010.75;5063501;28;20132;-68
2023/11/30 04:25:10;;;;;;;40.72;21.65;;;;;;;1.99;100.00;99010.16;5066160;28;20052;-68
2023/11/30 04:27:39;;;;;;;41.88;22.27;;;;;;;2.06;100.00;99006.41;5062979;28;20052;-69
2023/11/30 04:30:08;;;;;;;41.30;21.58;;;;;;;2.09;100.00;99004.56;5057040;28;20579;-69
2023/11/30 04:32:38;;;;;;;43.00;22.05;;;;;;;2.04;100.00;99001.28;5077687;28;20079;-68
2023/11/30 04:35:07;;;;;;;43.00;20.77;;;;;;;2.05;100.00;98999.50;5063316;28;20461;-68
2023/11/30 04:37:35;;;;;;;40.05;21.98;;;;;;;1.99;100.00;98994.50;5063388;28;20040;-68
2023/11/30 04:40:04;;;;;;;46.45;22.20;;;;;;;1.95;100.00;98993.75;5056934;28;20053;-67
2023/11/30 04:42:34;;;;;;;47.30;22.90;;;;;;;1.94;100.00;98999.88;5083342;28;20120;-68
2023/11/30 04:45:03;;;;;;;;;;;;;;;1.94;100.00;98999.88;5049062;28;20123;-67
2023/11/30 04:47:31;;;;;;;41.13;21.25;;;;;;;1.93;100.00;98998.16;5059631;28;19928;-68
2023/11/30 04:49:59;;;;;;;46.42;22.20;;;;;;;1.93;100.00;98992.09;5057775;28;20040;-67
2023/11/30 04:52:28;;;;;;;43.38;22.27;;;;;;;1.91;100.00;98979.09;5076014;28;20052;-69
2023/11/30 04:54:56;;;;;;;47.00;22.38;;;;;;;1.94;100.00;98988.56;5064893;28;20055;-68
2023/11/30 04:57:23;;;;;;;48.38;23.38;;;;;;;1.90;100.00;98981.75;5065201;28;20111;-68
2023/11/30 04:59:53;;;;;;;46.38;22.13;;;;;;;1.93;100.00;98992.09;5058105;28;20567;-68
2023/11/30 05:02:21;;;;;;;48.67;22.80;;;;;;;1.93;100.00;98986.88;5075150;28;20075;-69
2023/11/30 05:04:49;;;;;;;50.00;22.17;;;;;;;1.92;100.00;98993.84;5062465;28;20147;-68
2023/11/30 05:07:19;;;;;;;47.80;22.77;;;;;;;1.93;100.00;98981.66;5062802;28;20052;-68
2023/11/30 05:09:48;;;;;;;47.40;22.65;;;;;;;1.94;100.00;98983.34;5038610;28;20098;-67
2023/11/30 05:12:19;;;;;;;47.38;23.33;;;;;;;1.93;100.00;98973.81;5079401;28;20432;-66
2023/11/30 05:14:47;;;;;;;47.47;21.83;;;;;;;1.95;100.00;98965.03;5101177;28;20084;-67
2023/11/30 05:17:18;;;;;;;44.90;22.60;;;;;;;2.02;100.00;98963.06;5060162;28;20086;-67
2023/11/30 05:19:46;;;;;;;50.15;23.67;;;;;;;2.00;100.00;98960.50;5046157;28;22294;-68
2023/11/30 05:22:18;;;;;;;46.85;22.67;;;;;;;1.97;100.00;98967.59;5067014;28;20070;-68
2023/11/30 05:24:46;;;;;;;44.28;22.10;;;;;;;1.88;100.00;98949.66;5061999;28;20404;-68
2023/11/30 05:27:14;;;;;;;46.20;22.48;;;;;;;1.95;100.00;98975.47;5077762;28;20155;-67
2023/11/30 05:29:42;;;;;;;44.67;22.63;;;;;;;1.95;100.00;98975.47;5076804;28;20036;-68
2023/11/30 05:32:10;;;;;;;54.70;23.33;;;;;;;1.94;100.00;98972.91;5059210;28;20048;-68
2023/11/30 05:34:40;;;;;;;51.70;24.45;;;;;;;1.91;100.00;98979.09;5066296;28;20048;-68
2023/11/30 05:37:08;;;;;;;47.38;23.63;;;;;;;1.93;100.00;98981.66;5065744;28;20293;-67
2023/11/30 05:39:36;;;;;;;53.88;22.80;;;;;;;1.94;100.00;98985.97;5093894;28;20567;-67
2023/11/30 05:42:05;;;;;;;42.88;22.13;;;;;;;1.95;100.00;98980.69;5073372;28;20036;-68
2023/11/30 05:44:33;;;;;;;44.65;22.52;;;;;;;1.93;100.00;98982.50;5061093;28;20455;-68
2023/11/30 05:47:03;;;;;;;42.13;22.80;;;;;;;1.99;100.00;98987.53;5064107;28;20040;-70
2023/11/30 05:49:31;;;;;;;43.58;22.60;;;;;;;1.98;100.00;98982.34;5073342;28;20052;-68
2023/11/30 05:52:01;;;;;;;46.20;22.85;;;;;;;2.01;100.00;98977.03;5060035;28;20072;-67
2023/11/30 05:54:29;;;;;;;40.13;20.58;;;;;;;2.04;100.00;98974.31;5065564;28;20053;-68
2023/11/30 05:56:57;;;;;;;39.63;21.00;;;;;;;2.10;100.00;98974.09;5064622;28;20139;-68
2023/11/30 05:59:28;;;;;;;44.88;22.67;;;;;;;2.08;100.00;98970.66;5057289;28;20135;-68
2023/11/30 06:01:57;;;;;;;46.03;23.77;;;;;;;2.07;100.00;98964.59;5064397;28;20100;-67
2023/11/30 06:04:25;;;;;;;48.45;22.35;;;;;;;2.09;100.00;98967.16;5086651;28;20048;-67
2023/11/30 06:06:55;;;;;;;40.00;21.52;;;;;;;2.05;100.00;98966.41;5065423;28;20135;-67
2023/11/30 06:09:25;;;;;;;45.13;22.48;;;;;;;2.10;100.00;98971.47;5071649;28;20063;-67
2023/11/30 06:11:53;;;;;;;38.60;21.20;;;;;;;2.10;100.00;98959.25;5084190;28;20626;-67
2023/11/30 06:14:21;;;;;;;45.22;22.50;;;;;;;2.13;100.00;98950.47;5075939;28;20427;-67
2023/11/30 06:16:49;;;;;;;41.17;21.38;;;;;;;2.19;100.00;98947.66;5073748;28;20036;-68
2023/11/30 06:19:19;;;;;;;38.33;21.27;;;;;;;2.23;100.00;98949.22;5057075;28;20067;-68
2023/11/30 06:21:47;;;;;;;35.42;19.33;;;;;;;2.25;100.00;98947.41;5075679;28;20036;-67
2023/11/30 06:24:14;;;;;;;39.17;21.45;;;;;;;2.27;100.00;98944.75;5075911;28;20044;-68
2023/11/30 06:26:45;;;;;;;44.20;23.13;;;;;;;2.29;100.00;98951.63;5077380;28;20041;-68
2023/11/30 06:29:15;;;;;;;35.00;19.67;;;;;;;2.29;100.00;98946.41;5075504;28;20048;-69
2023/11/30 06:31:43;;;;;;;36.10;21.30;;;;;;;2.29;100.00;98943.78;5064923;28;20078;-68
2023/11/30 06:34:14;;;;;;;39.08;21.48;;;;;;;2.29;100.00;98927.25;5071817;28;20052;-69
2023/11/30 06:36:41;;;;;;;39.72;21.88;;;;;;;2.24;100.00;98929.19;5064844;28;20048;-68
2023/11/30 06:39:10;;;;;;;42.42;22.40;;;;;;;2.26;100.00;98933.44;5063729;28;20044;-67
2023/11/30 06:41:39;;;;;;;38.63;20.30;;;;;;;2.25;100.00;98934.34;5072419;28;20047;-70
2023/11/30 06:44:10;;;;;;;41.40;21.23;;;;;;;2.19;100.00;98926.75;5064003;28;20131;-68
2023/11/30 06:46:41;;;;;;;36.00;20.47;;;;;;;2.19;100.00;98925.91;5088325;28;20040;-67
2023/11/30 06:49:15;;;;;;;34.38;19.33;;;;;;;2.19;100.00;98923.31;5072054;28;20497;-69
2023/11/30 06:51:43;;;;;;;35.08;20.10;;;;;;;2.22;100.00;98926.63;5081725;28;20040;-68
2023/11/30 06:54:11;;;;;;;34.20;20.83;;;;;;;2.25;100.00;98915.22;5040869;28;20101;-68
2023/11/30 06:56:39;;;;;;;38.78;21.95;;;;;;;2.22;100.00;98913.56;5072277;28;20108;-68
2023/11/30 06:59:07;;;;;;;34.05;20.38;;;;;;;2.28;100.00;98921.19;5069546;28;20551;-68
2023/11/30 07:01:37;;;;;;;33.58;20.40;;;;;;;2.27;100.00;98932.53;5047594;28;20143;-67
2023/11/30 07:04:05;;;;;;;34.65;19.92;;;;;;;2.24;100.00;98935.25;5090183;28;20044;-68
2023/11/30 07:06:33;;;;;;;32.45;19.52;;;;;;;2.25;100.00;98939.56;5083854;28;20477;-67
2023/11/30 07:09:02;;;;;;;34.75;19.85;;;;;;;2.27;100.00;98937.78;5073318;28;20048;-67
2023/11/30 07:11:30;;;;;;;31.92;19.23;;;;;;;2.28;100.00;98936.00;5061190;28;20504;-68
2023/11/30 07:17:17;;;;;;;33.97;20.27;;;;;;;2.29;100.00;98922.91;5064549;28;20051;-68
2023/11/30 07:19:45;;;;;;;32.95;19.85;;;;;;;2.26;100.00;98930.84;5069144;28;20074;-69
2023/11/30 07:22:14;;;;;;;39.17;21.05;;;;;;;2.22;100.00;98925.78;5050579;28;20056;-68
2023/11/30 07:24:41;;;;;;;36.72;21.40;;;;;;;2.31;100.00;98947.19;5064740;28;20055;-69
2023/11/30 07:27:11;;;;;;;42.95;21.70;;;;;;;2.32;100.00;98935.00;5043791;28;20052;-68
2023/11/30 07:29:38;;;;;;;38.97;20.83;;;;;;;2.27;100.00;98939.53;5058794;28;20157;-68
2023/11/30 07:32:08;;;;;;;39.17;21.02;;;;;;;2.32;100.00;98945.44;5057548;28;20354;-69
2023/11/30 07:34:40;;;;;;;38.35;20.75;;;;;;;2.23;100.00;98936.16;5063087;28;20049;-68
2023/11/30 07:37:08;;;;;;;38.55;20.38;;;;;;;2.23;100.00;98941.38;5079965;28;20045;-68
2023/11/30 07:39:37;;;;;;;41.22;21.17;;;;;;;2.23;100.00;98938.78;5066770;28;20048;-68
2023/11/30 07:42:08;;;;;;;38.20;20.45;;;;;;;2.24;100.00;98944.84;5074624;28;20139;-67
2023/11/30 07:44:36;;;;;;;36.45;21.05;;;;;;;2.24;100.00;98935.25;5067634;28;20095;-68
2023/11/30 07:47:05;;;;;;;38.33;20.63;;;;;;;2.26;100.00;98940.44;5067644;28;20166;-69
2023/11/30 07:49:33;;;;;;;36.75;20.45;;;;;;;2.26;100.00;98938.69;5061132;28;22682;-67
2023/11/30 07:52:02;;;;;;;37.70;20.77;;;;;;;2.27;100.00;98927.31;5061288;28;20041;-67
2023/11/30 07:54:30;;;;;;;35.03;20.90;;;;;;;2.26;100.00;98920.41;5069400;28;20048;-68
2023/11/30 07:59:51;;;;;;;35.38;20.40;;;;;;;2.42;100.00;98931.97;5065033;28;20072;-67
2023/11/30 08:02:19;;;;;;;36.65;20.90;;;;;;;2.45;100.00;98934.47;5054847;28;20043;-67
2023/11/30 08:04:49;;;;;;;34.90;20.35;;;;;;;2.51;100.00;98929.94;5067229;28;20064;-68
2023/11/30 08:07:20;;;;;;;37.55;22.27;;;;;;;2.56;100.00;98928.00;5064056;28;20449;-68
2023/11/30 08:09:48;;;;;;;32.55;20.35;;;;;;;2.61;100.00;98931.28;5068948;28;20040;-68
2023/11/30 08:12:17;;;;;;;31.65;19.73;;;;;;;2.59;100.00;98931.34;5052109;28;20528;-67
2023/11/30 08:14:45;;;;;;;34.35;21.10;;;;;;;2.64;100.00;98934.66;5064712;28;20068;-67
2023/11/30 08:17:13;;;;;;;32.35;19.77;;;;;;;2.68;100.00;98930.97;5068149;28;20056;-68
2023/11/30 08:19:41;;;;;;;33.92;20.30;;;;;;;2.61;100.00;98919.06;5066138;28;20435;-68
2023/11/30 08:22:10;;;;;;;36.92;20.55;;;;;;;2.70;100.00;98928.31;5047296;28;20206;-67
2023/11/30 08:24:43;;;;;;;33.67;20.90;;;;;;;2.74;100.00;98929.91;5068443;28;20064;-68
2023/11/30 08:27:12;;;;;;;34.08;20.05;;;;;;;2.77;100.00;98933.25;5060649;28;20062;-67
2023/11/30 08:29:43;;;;;;;38.05;21.48;;;;;;;2.81;100.00;98926.16;5068665;28;20044;-69
2023/11/30 08:32:14;;;;;;;34.13;21.27;;;;;;;2.81;100.00;98919.16;5061014;28;20040;-69
2023/11/30 08:34:42;;;;;;;36.00;21.45;;;;;;;2.89;100.00;98924.06;5068835;28;20048;-68
2023/11/30 08:37:10;;;;;;;33.80;20.73;;;;;;;2.86;100.00;98924.19;5067194;28;20048;-69
2023/11/30 08:39:38;;;;;;;39.40;21.60;;;;;;;2.92;100.00;98931.81;5069896;28;20464;-69
2023/11/30 08:42:11;;;;;;;34.00;20.60;;;;;;;2.89;100.00;98920.59;5060190;28;20135;-68
2023/11/30 08:44:40;;;;;;;34.60;20.92;;;;;;;2.92;100.00;98925.72;5075500;28;20052;-68
2023/11/30 08:47:08;;;;;;;31.52;20.40;;;;;;;2.94;100.00;98935.22;5072896;28;20051;-68
2023/11/30 08:49:36;;;;;;;33.63;20.15;;;;;;;2.99;100.00;98933.25;5048249;28;20064;-68
2023/11/30 08:52:05;;;;;;;32.25;20.70;;;;;;;2.98;100.00;98928.97;5054819;28;20044;-67
2023/11/30 08:54:33;;;;;;;31.63;19.70;;;;;;;2.99;100.00;98945.50;5065957;28;20667;-68
2023/11/30 08:57:04;;;;;;;32.65;19.80;;;;;;;3.04;100.00;98944.41;5063250;28;20125;-68
2023/11/30 08:59:35;;;;;;;29.75;19.05;;;;;;;3.07;100.00;98946.91;5064449;28;20086;-68
2023/11/30 09:02:03;;;;;;;30.90;19.38;;;;;;;3.08;100.00;98937.28;5057062;28;20072;-69
2023/11/30 09:04:31;;;;;;;34.10;21.08;;;;;;;3.03;100.00;98927.00;5050639;28;20047;-67
2023/11/30 09:06:59;;;;;;;31.60;19.90;;;;;;;3.07;100.00;98925.97;5065005;28;20048;-68
2023/11/30 09:09:28;;;;;;;30.80;19.75;;;;;;;3.14;100.00;98924.81;5062219;28;20044;-68
2023/11/30 09:11:56;;;;;;;32.10;19.95;;;;;;;3.18;100.00;98917.69;5053762;28;20113;-69
2023/11/30 09:14:27;;;;;;;33.13;20.52;;;;;;;3.17;100.00;98927.28;5062843;28;20047;-68
2023/11/30 09:16:59;;;;;;;30.55;19.92;;;;;;;3.22;100.00;98931.50;5061540;28;20508;-68
2023/11/30 09:19:28;;;;;;;32.00;20.23;;;;;;;3.26;100.00;98926.09;5054913;28;20048;-69
2023/11/30 09:21:57;;;;;;;30.77;19.85;;;;;;;3.31;100.00;98928.50;5070734;28;20049;-68
2023/11/30 09:24:25;;;;;;;33.67;20.70;;;;;;;3.38;100.00;98916.88;5061329;28;20068;-68
2023/11/30 09:26:54;;;;;;;35.95;21.15;;;;;;;3.40;100.00;98910.66;5077840;28;20531;-68
2023/11/30 09:29:22;;;;;;;32.25;19.98;;;;;;;3.39;100.00;98910.72;5062400;28;21169;-68
2023/11/30 09:31:50;;;;;;;31.60;20.48;;;;;;;3.37;100.00;98913.41;5056031;28;20500;-67
2023/11/30 09:34:19;;;;;;;33.30;21.17;;;;;;;3.30;100.00;98903.28;5057537;28;20131;-70
2023/11/30 09:36:49;;;;;;;37.47;23.02;;;;;;;3.31;100.00;98920.66;5060872;28;20524;-69
2023/11/30 09:39:19;;;;;;;34.25;22.00;;;;;;;3.29;100.00;98910.28;5063826;28;20041;-69
2023/11/30 09:41:48;;;;;;;31.38;20.73;;;;;;;3.31;100.00;98913.66;5057258;28;20041;-70
2023/11/30 09:44:16;;;;;;;34.83;20.77;;;;;;;3.31;100.00;98916.25;5059090;28;20339;-68
2023/11/30 09:46:45;;;;;;;30.88;20.13;;;;;;;3.30;100.00;98909.34;5064196;28;20119;-69
2023/11/30 09:49:13;;;;;;;31.73;19.77;;;;;;;3.32;100.00;98902.28;5061943;28;20143;-68
2023/11/30 09:51:48;;;;;;;33.78;20.00;;;;;;;3.36;100.00;98897.78;5067033;28;20044;-67
2023/11/30 09:54:17;;;;;;;33.25;21.10;;;;;;;3.41;100.00;98891.44;5058144;28;20072;-69
2023/11/30 09:56:46;;;;;;;32.08;19.30;;;;;;;3.56;100.00;98889.94;5062514;28;20041;-68
2023/11/30 09:59:15;;;;;;;26.98;18.98;;;;;;;3.62;100.00;98889.66;5064639;28;20504;-69
2023/11/30 10:01:43;;;;;;;31.08;18.30;;;;;;;3.68;100.00;98884.16;5055584;28;20044;-68
2023/11/30 10:04:14;;;;;;;30.23;19.50;;;;;;;3.82;100.00;98887.03;5073130;28;20059;-69
2023/11/30 10:06:47;;;;;;;30.20;20.08;;;;;;;3.78;100.00;98882.84;5064620;28;20528;-68
2023/11/30 10:09:16;;;;;;;38.92;19.95;;;;;;;3.75;100.00;98874.31;5062225;28;20473;-68
2023/11/30 10:11:44;;;;;;;29.65;19.10;;;;;;;3.78;100.00;98875.00;5067515;28;20051;-69
2023/11/30 10:14:12;;;;;;;29.55;19.05;;;;;;;3.82;100.00;98881.81;5068994;28;20067;-69
2023/11/30 10:16:41;;;;;;;29.65;19.67;;;;;;;3.83;100.00;98870.41;5061600;28;20136;-69
2023/11/30 10:19:10;;;;;;;30.77;20.48;;;;;;;3.93;100.00;98867.41;5062980;28;20424;-67
2023/11/30 10:21:39;;;;;;;31.13;19.75;;;;;;;3.95;100.00;98873.41;5062526;28;20052;-68
2023/11/30 10:24:11;;;;;;;29.15;19.35;;;;;;;3.96;100.00;98870.72;5063591;28;20509;-69
2023/11/30 10:26:44;;;;;;;30.35;20.58;;;;;;;3.97;100.00;98869.81;5065460;28;20048;-69
2023/11/30 10:29:16;;;;;;;28.98;19.77;;;;;;;3.90;100.00;98873.63;5065471;28;20048;-69
2023/11/30 10:31:45;;;;;;;30.25;20.13;;;;;;;3.92;100.00;98865.72;5055955;28;20048;-69
2023/11/30 10:34:16;;;;;;;30.10;18.60;;;;;;;3.99;100.00;98872.34;5058540;28;20048;-68
2023/11/30 10:36:45;;;;;;;30.02;20.45;;;;;;;4.04;100.00;98865.16;5056702;28;20057;-68
2023/11/30 10:39:16;;;;;;;28.38;19.42;;;;;;;4.05;100.00;98872.09;5097771;28;20147;-69
2023/11/30 10:41:52;;;;;;;27.55;19.10;;;;;;;3.90;100.00;98852.69;5057447;28;20052;-68
2023/11/30 10:44:27;;;;;;;33.38;21.08;;;;;;;3.96;100.00;98862.00;5055637;28;20048;-68
2023/11/30 10:46:57;;;;;;;31.63;20.75;;;;;;;3.95;100.00;98871.63;5062900;28;20053;-69
2023/11/30 10:49:28;;;;;;;35.75;21.85;;;;;;;3.94;100.00;98846.38;5063394;28;20060;-68
2023/11/30 10:52:00;;;;;;;32.97;20.45;;;;;;;4.07;100.00;98852.78;5077827;28;20044;-68
2023/11/30 10:54:38;;;;;;;34.75;22.23;;;;;;;4.15;100.00;98847.19;5064888;28;20032;-69
2023/11/30 10:57:07;;;;;;;34.55;22.23;;;;;;;4.28;100.00;98850.94;5067946;28;22619;-68
2023/11/30 10:59:35;;;;;;;33.78;21.92;;;;;;;4.43;100.00;98850.22;5067489;28;20454;-71
2023/11/30 11:02:05;;;;;;;35.08;22.20;;;;;;;4.60;100.00;98844.19;5060617;28;20060;-69
2023/11/30 11:04:34;;;;;;;;;;;;;;;4.67;100.00;98840.38;5061000;28;20056;-68
2023/11/30 11:07:10;;;;;;;32.28;21.05;;;;;;;4.56;100.00;98838.22;5063677;28;19931;-70
2023/11/30 11:09:44;;;;;;;30.88;20.58;;;;;;;4.53;100.00;98837.56;5068881;28;20100;-69
2023/11/30 11:12:20;;;;;;;33.40;21.10;;;;;;;4.50;100.00;98833.28;5063480;28;20138;-68
2023/11/30 11:14:52;;;;;;;34.38;21.00;;;;;;;4.43;100.00;98831.03;5079215;28;20131;-68
2023/11/30 11:17:22;;;;;;;28.77;19.50;;;;;;;4.42;100.00;98840.66;5067341;28;20068;-69
2023/11/30 11:19:53;;;;;;;30.77;19.85;;;;;;;4.38;100.00;98835.66;5070842;28;20056;-68
2023/11/30 11:22:24;;;;;;;29.27;19.50;;;;;;;4.29;100.00;98830.81;5059290;28;20087;-69
2023/11/30 11:24:59;;;;;;;28.65;19.27;;;;;;;4.24;100.00;98828.44;5067568;28;20154;-68
2023/11/30 11:27:31;;;;;;;29.35;19.52;;;;;;;4.31;100.00;98832.44;5084925;28;20060;-69
2023/11/30 11:30:02;;;;;;;28.88;19.05;;;;;;;4.38;100.00;98826.03;5064652;28;20052;-68
2023/11/30 11:32:35;;;;;;;29.20;19.65;;;;;;;4.45;100.00;98824.78;5068556;28;20063;-68